Etusivu
METAR-TAF:

METAR-TAF

Lentoasemat :

Rush City Regional Airport

Rush City, Minnesota, Yhdysvallat

Leveyspiiri: 45-41-53N, Pituuspiiri: 092-57-11W, korkeus merenpinnasta: 281 m

Tämänhetkinen sää

Tämä raportti tehtiin 13 minuuttia sitten, kello 09.35 UTC
tyyntä
Lämpötila -20°C
Kosteus 70%
Ilmanpaine 1035 hPa
Näkyvyys: 16.1 km
Pilvistä 11000 ft:n korkeudessa

METAR: KROS 190935Z AUTO 00000KT 10SM OVC110 M20/M24 A3057 RMK AO2 T12031236

Aika: 03:48 (09:48 UTC)


TAF: puuttuu

Säähavainnot ja -ennusteet yli 4000 lentoasemalta (METAR- ja TAF-raportit).

Käytössä olevat sääasemat on merkitty karttaan keltaisilla ja punaisilla pisteillä.

Aseta hiiri pisteen päälle nähdäksesi sääaseman nimen.

Klikkaa sitten nähdäksesi säähavainnot ja -ennusteet.

Kartan vaihtaminen: klikkaa mustalla rastilla varustettuja vihreitä pisteitä, niin voit zoomata sisään; viivalla varustettua vihreää pistettä, niin voit zoomata ulos tai vihreitä nuolia, niin pääset viereisille kartoille.


METAR-TAF: